createdAt,value
2024-01-18T00:00:22.504Z,0.72
2024-01-18T00:05:39.893Z,0.74
2024-01-18T00:08:06.301Z,0.81
2024-01-18T00:10:32.745Z,0.61
2024-01-18T00:12:59.126Z,0.76
2024-01-18T00:15:25.584Z,1.70
2024-01-18T00:17:52.300Z,1.71
2024-01-18T00:20:18.802Z,1.86
2024-01-18T00:22:45.222Z,2.72
2024-01-18T00:25:11.670Z,0.92
2024-01-18T00:27:38.147Z,1.51
2024-01-18T00:30:04.869Z,1.06
2024-01-18T00:32:31.431Z,1.02
2024-01-18T00:34:57.902Z,1.21
2024-01-18T00:37:24.297Z,1.67
2024-01-18T00:39:50.700Z,2.00
2024-01-18T00:42:17.132Z,2.33
2024-01-18T00:44:43.590Z,1.80
2024-01-18T00:47:09.997Z,1.98
2024-01-18T00:49:36.517Z,2.79
2024-01-18T00:52:02.965Z,5.07
2024-01-18T00:54:29.426Z,3.74
2024-01-18T00:56:55.870Z,1.87
2024-01-18T00:59:22.278Z,0.77
2024-01-18T01:01:48.700Z,0.89
2024-01-18T01:04:15.142Z,0.48
2024-01-18T01:06:41.629Z,0.60
2024-01-18T01:09:08.180Z,0.83
2024-01-18T01:11:34.608Z,1.24
2024-01-18T01:14:01.151Z,1.03
2024-01-18T01:16:27.618Z,0.79
2024-01-18T01:18:54.057Z,0.86
2024-01-18T01:21:20.472Z,0.80
2024-01-18T01:23:46.885Z,0.81
2024-01-18T01:26:13.283Z,0.83
2024-01-18T01:28:39.671Z,0.91
2024-01-18T01:31:06.098Z,0.80
2024-01-18T01:33:32.676Z,0.94
2024-01-18T01:35:59.583Z,0.94
2024-01-18T01:38:26.010Z,0.98
2024-01-18T01:40:52.439Z,1.06
2024-01-18T01:43:18.845Z,1.07
2024-01-18T01:45:45.769Z,1.38
2024-01-18T01:48:12.292Z,2.62
2024-01-18T01:50:38.731Z,1.56
2024-01-18T01:53:05.129Z,1.70
2024-01-18T01:55:31.650Z,0.99
2024-01-18T01:57:58.045Z,0.83
2024-01-18T02:00:24.495Z,1.24
2024-01-18T02:02:51.029Z,0.71
2024-01-18T02:05:17.520Z,0.69
2024-01-18T02:07:44.005Z,0.68
2024-01-18T02:12:51.789Z,0.38
2024-01-18T02:15:18.266Z,0.48
2024-01-18T02:17:44.721Z,0.63
2024-01-18T02:20:11.149Z,0.88
2024-01-18T02:22:37.557Z,1.35
2024-01-18T02:25:04.011Z,0.77
2024-01-18T02:27:38.380Z,1.05
2024-01-18T02:30:04.837Z,1.09
2024-01-18T02:32:31.345Z,0.77
2024-01-18T02:34:57.761Z,0.52
2024-01-18T02:37:24.146Z,0.88
2024-01-18T02:39:50.568Z,0.78
2024-01-18T02:42:17.054Z,1.33
2024-01-18T02:44:43.817Z,0.93
2024-01-18T02:47:10.205Z,0.73
2024-01-18T02:49:36.644Z,0.75
2024-01-18T02:52:03.047Z,0.92
2024-01-18T02:54:29.533Z,0.64
2024-01-18T02:56:56.043Z,1.90
2024-01-18T02:59:27.041Z,2.12
2024-01-18T03:01:53.562Z,1.96
2024-01-18T03:04:20.891Z,2.27
2024-01-18T03:06:47.518Z,2.25
2024-01-18T03:09:13.991Z,2.28
2024-01-18T03:11:40.863Z,2.53
2024-01-18T03:14:07.529Z,2.54
2024-01-18T03:16:33.937Z,3.11
2024-01-18T03:19:00.495Z,3.04
2024-01-18T03:21:27.022Z,2.32
2024-01-18T03:23:53.411Z,2.53
2024-01-18T03:26:19.812Z,2.41
2024-01-18T03:28:46.236Z,2.09
2024-01-18T03:31:12.630Z,2.07
2024-01-18T03:33:39.487Z,1.86
2024-01-18T03:36:05.971Z,2.07
2024-01-18T03:38:32.389Z,1.74
2024-01-18T03:40:58.792Z,1.37
2024-01-18T03:43:25.183Z,1.11
2024-01-18T03:45:51.659Z,1.23
2024-01-18T03:48:18.139Z,1.47
2024-01-18T03:53:24.861Z,0.84
2024-01-18T03:55:51.250Z,0.78
2024-01-18T03:58:17.639Z,0.77
2024-01-18T04:00:44.092Z,1.06
2024-01-18T04:03:10.691Z,1.08
2024-01-18T04:05:37.337Z,1.17
2024-01-18T04:08:03.866Z,1.11
2024-01-18T04:10:30.263Z,1.11
2024-01-18T04:12:56.685Z,1.28
2024-01-18T04:15:23.091Z,1.21
2024-01-18T04:17:49.585Z,1.44
2024-01-18T04:20:16.042Z,1.30
2024-01-18T04:22:42.459Z,1.46
2024-01-18T04:25:08.855Z,1.97
2024-01-18T04:27:35.346Z,2.34
2024-01-18T04:30:01.837Z,2.04
2024-01-18T04:32:28.289Z,1.46
2024-01-18T04:34:54.761Z,2.05
2024-01-18T04:37:21.268Z,2.89
2024-01-18T04:39:47.682Z,1.62
2024-01-18T04:42:14.141Z,1.74
2024-01-18T04:44:40.575Z,1.70
2024-01-18T04:47:08.196Z,1.60
2024-01-18T04:49:34.658Z,2.02
2024-01-18T04:52:01.098Z,2.51
2024-01-18T04:54:27.545Z,2.58
2024-01-18T04:56:53.978Z,7.12
2024-01-18T04:59:20.393Z,7.07
2024-01-18T05:01:46.784Z,3.29
2024-01-18T05:04:13.478Z,3.27
2024-01-18T05:06:40.052Z,2.04
2024-01-18T05:09:06.631Z,1.84
2024-01-18T05:11:33.155Z,1.83
2024-01-18T05:13:59.561Z,2.45
2024-01-18T05:16:25.975Z,2.65
2024-01-18T05:18:53.590Z,2.81
2024-01-18T05:21:20.146Z,2.79
2024-01-18T05:23:46.549Z,2.57
2024-01-18T05:26:12.937Z,2.33
2024-01-18T05:28:39.330Z,2.08
2024-01-18T05:31:05.752Z,2.37
2024-01-18T05:33:32.280Z,2.42
2024-01-18T05:35:58.957Z,2.55
2024-01-18T05:38:25.472Z,2.41
2024-01-18T05:40:51.915Z,2.30
2024-01-18T05:43:18.357Z,2.24
2024-01-18T05:45:44.911Z,1.95
2024-01-18T05:48:11.872Z,3.05
2024-01-18T05:50:38.318Z,2.96
2024-01-18T05:53:04.701Z,1.61
2024-01-18T05:55:31.220Z,1.43
2024-01-18T06:00:38.019Z,1.32
2024-01-18T06:03:04.519Z,1.40
2024-01-18T06:05:31.035Z,1.57
2024-01-18T06:07:57.429Z,1.66
2024-01-18T06:10:23.816Z,1.67
2024-01-18T06:12:50.233Z,1.45
2024-01-18T06:15:16.672Z,1.15
2024-01-18T06:17:43.233Z,1.20
2024-01-18T06:20:09.802Z,1.48
2024-01-18T06:22:36.363Z,1.60
2024-01-18T06:25:02.880Z,1.45
2024-01-18T06:27:29.464Z,1.39
2024-01-18T06:30:02.520Z,1.19
2024-01-18T06:32:29.027Z,1.14
2024-01-18T06:34:55.563Z,1.20
2024-01-18T06:37:22.089Z,1.20
2024-01-18T06:39:48.569Z,1.36
2024-01-18T06:42:17.734Z,1.49
2024-01-18T06:44:49.595Z,1.40
2024-01-18T06:47:16.506Z,1.55
2024-01-18T06:49:43.036Z,1.74
2024-01-18T06:52:10.318Z,1.40
2024-01-18T06:54:36.865Z,1.17
2024-01-18T06:57:03.480Z,1.22
2024-01-18T06:59:29.992Z,1.18
2024-01-18T07:01:56.494Z,1.53
2024-01-18T07:04:22.991Z,2.05
2024-01-18T07:06:49.580Z,7.89
2024-01-18T07:09:16.211Z,8.49
2024-01-18T07:11:44.854Z,5.67
2024-01-18T07:14:11.262Z,3.56
2024-01-18T07:16:37.744Z,2.53
2024-01-18T07:19:04.358Z,2.72
2024-01-18T07:21:30.951Z,2.63
2024-01-18T07:23:57.591Z,2.16
2024-01-18T07:26:24.070Z,2.17
2024-01-18T07:28:50.750Z,2.39
2024-01-18T07:31:17.231Z,2.29
2024-01-18T07:33:43.879Z,2.41
2024-01-18T07:36:12.419Z,2.54
2024-01-18T07:38:38.870Z,2.72
2024-01-18T07:41:05.257Z,2.70
2024-01-18T07:43:31.678Z,1.98
2024-01-18T07:45:58.242Z,1.80
2024-01-18T07:48:24.808Z,1.64
2024-01-18T07:50:51.542Z,1.49
2024-01-18T07:53:18.407Z,2.03
2024-01-18T07:55:44.921Z,2.12
2024-01-18T07:58:11.366Z,1.70
2024-01-18T08:00:38.046Z,1.79
2024-01-18T08:03:04.574Z,1.65
2024-01-18T08:05:31.130Z,2.02
2024-01-18T08:07:57.712Z,2.27
2024-01-18T08:10:24.157Z,2.15
2024-01-18T08:12:50.656Z,1.80
2024-01-18T08:15:17.219Z,2.35
2024-01-18T08:17:43.674Z,2.19
2024-01-18T08:20:10.120Z,2.02
2024-01-18T08:22:36.519Z,1.85
2024-01-18T08:25:03.010Z,1.77
2024-01-18T08:27:29.536Z,1.48
2024-01-18T08:29:56.045Z,1.88
2024-01-18T08:32:22.516Z,2.01
2024-01-18T08:34:49.017Z,2.33
2024-01-18T08:37:15.633Z,2.39
2024-01-18T08:39:42.264Z,3.14
2024-01-18T08:42:08.864Z,3.37
2024-01-18T08:44:35.322Z,2.70
2024-01-18T08:47:01.777Z,2.75
2024-01-18T08:49:28.362Z,2.59
2024-01-18T08:51:54.940Z,2.22
2024-01-18T08:54:21.419Z,2.07
2024-01-18T08:56:47.935Z,2.21
2024-01-18T08:59:14.349Z,1.97
2024-01-18T09:01:43.961Z,2.48
2024-01-18T09:04:10.637Z,2.03
2024-01-18T09:06:37.263Z,2.28
2024-01-18T09:09:03.738Z,2.31
2024-01-18T09:11:30.289Z,1.86
2024-01-18T09:13:56.693Z,1.83
2024-01-18T09:16:23.168Z,1.55
2024-01-18T09:19:00.973Z,1.41
2024-01-18T09:21:35.927Z,1.34
2024-01-18T09:24:02.446Z,1.46
2024-01-18T09:26:28.877Z,1.42
2024-01-18T09:28:55.371Z,1.29
2024-01-18T09:31:30.916Z,1.16
2024-01-18T09:34:04.860Z,1.36
2024-01-18T09:36:31.282Z,1.37
2024-01-18T09:38:57.712Z,1.55
2024-01-18T09:41:24.109Z,1.67
2024-01-18T09:43:50.602Z,1.69
2024-01-18T09:46:17.004Z,1.86
2024-01-18T09:48:43.518Z,1.54
2024-01-18T09:51:09.987Z,1.47
2024-01-18T09:53:36.389Z,1.44
2024-01-18T09:56:14.900Z,1.68
2024-01-18T09:58:41.386Z,1.77
2024-01-18T10:03:48.170Z,2.03
2024-01-18T10:06:14.787Z,2.05
2024-01-18T10:08:41.283Z,1.61
2024-01-18T10:11:08.298Z,2.04
2024-01-18T10:13:34.816Z,1.72
2024-01-18T10:16:01.232Z,1.47
2024-01-18T10:18:27.722Z,1.37
2024-01-18T10:20:56.159Z,1.51
2024-01-18T10:23:22.612Z,2.01
2024-01-18T10:25:55.352Z,3.07
2024-01-18T10:28:21.778Z,3.19
2024-01-18T10:30:48.285Z,2.23
2024-01-18T10:33:14.888Z,1.93
2024-01-18T10:35:41.347Z,1.74
2024-01-18T10:38:07.802Z,1.96
2024-01-18T10:40:34.254Z,2.12
2024-01-18T10:43:00.648Z,1.73
2024-01-18T10:45:27.077Z,1.77
2024-01-18T10:47:53.511Z,1.87
2024-01-18T10:50:19.946Z,1.87
2024-01-18T10:52:46.345Z,1.96
2024-01-18T10:55:12.800Z,1.72
2024-01-18T10:57:39.405Z,1.60
2024-01-18T11:00:06.052Z,1.72
2024-01-18T11:02:32.571Z,2.73
2024-01-18T11:04:58.998Z,1.82
2024-01-18T11:07:25.616Z,1.92
2024-01-18T11:09:52.149Z,2.08
2024-01-18T11:15:02.854Z,2.18
2024-01-18T11:17:29.376Z,1.95
2024-01-18T11:19:55.984Z,1.86
2024-01-18T11:22:22.530Z,2.02
2024-01-18T11:24:48.986Z,2.06
2024-01-18T11:29:55.873Z,2.09
2024-01-18T11:32:22.274Z,1.82
2024-01-18T11:34:48.678Z,1.88
2024-01-18T11:37:15.140Z,1.88
2024-01-18T11:39:42.781Z,1.91
2024-01-18T11:42:09.304Z,1.93
2024-01-18T11:47:19.786Z,2.29
2024-01-18T11:49:46.286Z,2.75
2024-01-18T11:55:02.660Z,1.99
2024-01-18T11:57:30.356Z,3.15
2024-01-18T11:59:56.850Z,3.57
2024-01-18T12:02:23.275Z,2.40
2024-01-18T12:04:50.890Z,2.33
2024-01-18T12:07:19.212Z,1.86
2024-01-18T12:09:45.887Z,1.97
2024-01-18T12:14:52.711Z,1.80
2024-01-18T12:17:19.186Z,2.11
2024-01-18T12:19:45.724Z,2.54
2024-01-18T12:22:12.248Z,2.36
2024-01-18T12:24:47.652Z,1.74
2024-01-18T12:27:14.564Z,1.83
2024-01-18T12:29:42.125Z,1.87
2024-01-18T12:32:08.839Z,2.38
2024-01-18T12:34:39.342Z,2.78
2024-01-18T12:37:07.017Z,2.03
2024-01-18T12:39:33.898Z,2.45
2024-01-18T12:42:00.445Z,2.42
2024-01-18T12:44:26.990Z,2.67
2024-01-18T12:46:53.524Z,2.41
2024-01-18T12:49:20.105Z,2.60
2024-01-18T12:51:46.673Z,2.62
2024-01-18T12:54:13.157Z,1.71
2024-01-18T12:56:39.628Z,1.44
2024-01-18T12:59:06.089Z,1.42
2024-01-18T13:01:32.735Z,2.01
2024-01-18T13:03:59.273Z,2.10
2024-01-18T13:06:25.821Z,1.91
2024-01-18T13:08:52.315Z,2.04
2024-01-18T13:11:18.752Z,2.10
2024-01-18T13:13:45.277Z,1.93
2024-01-18T13:16:11.777Z,2.10
2024-01-18T13:18:38.375Z,2.65
2024-01-18T13:21:08.897Z,2.89
2024-01-18T13:23:35.371Z,2.69
2024-01-18T13:26:02.181Z,2.46
2024-01-18T13:28:28.677Z,3.16
2024-01-18T13:30:55.220Z,3.14
2024-01-18T13:33:21.850Z,2.33
2024-01-18T13:35:51.116Z,2.14
2024-01-18T13:38:17.584Z,4.14
2024-01-18T13:40:44.056Z,3.34
2024-01-18T13:43:10.537Z,3.49
2024-01-18T13:45:37.121Z,3.72
2024-01-18T13:48:03.810Z,3.57
2024-01-18T13:50:32.922Z,6.69
2024-01-18T13:53:02.054Z,11.41
2024-01-18T13:55:30.935Z,9.07
2024-01-18T13:57:57.998Z,0.80
2024-01-18T14:00:24.466Z,0.75
2024-01-18T14:02:50.952Z,0.95
2024-01-18T14:05:17.454Z,1.22
2024-01-18T14:07:44.039Z,1.26
2024-01-18T14:10:10.662Z,0.48
2024-01-18T14:12:38.260Z,0.65
2024-01-18T14:15:04.749Z,0.48
2024-01-18T14:17:32.651Z,0.45
2024-01-18T14:19:59.302Z,0.42
2024-01-18T14:22:25.811Z,0.50
2024-01-18T14:24:52.336Z,0.56
2024-01-18T14:27:18.862Z,0.47
2024-01-18T14:29:45.733Z,0.52
2024-01-18T14:32:20.806Z,0.31
2024-01-18T14:34:47.460Z,0.35
2024-01-18T14:37:14.015Z,0.31
2024-01-18T14:39:40.942Z,0.29
2024-01-18T14:42:12.493Z,0.37
2024-01-18T14:44:39.006Z,1.07
2024-01-18T14:47:05.861Z,2.04
2024-01-18T14:49:32.455Z,0.90
2024-01-18T14:51:58.998Z,1.64
2024-01-18T14:54:25.596Z,1.85
2024-01-18T14:56:52.097Z,2.03
2024-01-18T14:59:18.609Z,1.81
2024-01-18T15:01:45.157Z,1.34
2024-01-18T15:04:11.848Z,1.97
2024-01-18T15:06:38.536Z,2.15
2024-01-18T15:09:05.049Z,1.39
2024-01-18T15:11:31.566Z,0.66
2024-01-18T15:13:58.047Z,0.65
2024-01-18T15:16:24.593Z,0.63
2024-01-18T15:19:00.270Z,0.44
2024-01-18T15:21:30.325Z,0.42
2024-01-18T15:23:56.877Z,0.53
2024-01-18T15:26:23.489Z,0.45
2024-01-18T15:28:49.976Z,0.50
2024-01-18T15:31:16.465Z,0.42
2024-01-18T15:33:43.102Z,0.44
2024-01-18T15:36:09.632Z,0.34
2024-01-18T15:38:36.126Z,0.34
2024-01-18T15:41:02.596Z,0.40
2024-01-18T15:43:29.136Z,0.52
2024-01-18T15:45:55.801Z,0.42
2024-01-18T15:48:24.437Z,0.39
2024-01-18T15:50:51.002Z,0.43
2024-01-18T15:53:25.539Z,0.42
2024-01-18T15:55:52.164Z,0.40
2024-01-18T15:58:18.640Z,0.46
2024-01-18T16:00:45.230Z,1.11
2024-01-18T16:03:11.757Z,0.46
2024-01-18T16:05:38.272Z,0.43
2024-01-18T16:08:04.751Z,0.74
2024-01-18T16:10:31.750Z,0.45
2024-01-18T16:12:58.297Z,0.58
2024-01-18T16:15:24.835Z,0.39
2024-01-18T16:17:52.933Z,0.33
2024-01-18T16:20:19.412Z,0.30
2024-01-18T16:22:46.337Z,0.23
2024-01-18T16:25:13.083Z,0.39
2024-01-18T16:27:39.520Z,0.50
2024-01-18T16:32:50.448Z,0.53
2024-01-18T16:35:17.021Z,0.51
2024-01-18T16:37:43.512Z,0.52
2024-01-18T16:40:10.044Z,0.37
2024-01-18T16:42:36.526Z,0.37
2024-01-18T16:45:02.992Z,0.59
2024-01-18T16:47:29.429Z,0.37
2024-01-18T16:49:55.981Z,0.29
2024-01-18T16:52:24.206Z,0.47
2024-01-18T16:54:51.471Z,0.45
2024-01-18T16:57:26.700Z,0.47
2024-01-18T16:59:56.653Z,0.73
2024-01-18T17:02:23.188Z,0.57
2024-01-18T17:04:49.799Z,0.49
2024-01-18T17:07:16.478Z,0.68
2024-01-18T17:09:42.994Z,0.50
2024-01-18T17:12:09.442Z,0.51
2024-01-18T17:14:36.026Z,0.37
2024-01-18T17:17:03.408Z,0.48
2024-01-18T17:19:30.060Z,0.40
2024-01-18T17:21:56.553Z,0.55
2024-01-18T17:24:23.032Z,0.44
2024-01-18T17:26:49.506Z,0.34
2024-01-18T17:29:16.021Z,0.70
2024-01-18T17:31:42.459Z,0.53
2024-01-18T17:34:08.892Z,0.48
2024-01-18T17:36:35.307Z,0.80
2024-01-18T17:39:01.756Z,0.47
2024-01-18T17:41:28.198Z,0.70
2024-01-18T17:43:54.667Z,0.31
2024-01-18T17:46:21.109Z,0.40
2024-01-18T17:48:53.485Z,0.56
2024-01-18T17:51:34.293Z,1.60
2024-01-18T17:54:00.756Z,1.26
2024-01-18T17:56:27.232Z,2.65
2024-01-18T17:58:53.716Z,1.33
2024-01-18T18:01:20.163Z,0.52
2024-01-18T18:03:46.677Z,0.99
2024-01-18T18:06:13.117Z,1.54
2024-01-18T18:08:39.594Z,1.94
2024-01-18T18:11:06.134Z,1.52
2024-01-18T18:13:32.674Z,1.35
2024-01-18T18:15:59.312Z,2.01
2024-01-18T18:18:25.787Z,1.36
2024-01-18T18:20:52.274Z,1.21
2024-01-18T18:23:18.960Z,0.94
2024-01-18T18:25:45.453Z,1.00
2024-01-18T18:28:14.380Z,1.34
2024-01-18T18:30:48.013Z,1.67
2024-01-18T18:33:21.409Z,1.27
2024-01-18T18:35:47.984Z,1.11
2024-01-18T18:38:20.916Z,0.68
2024-01-18T18:40:50.647Z,0.36
2024-01-18T18:43:17.722Z,0.52
2024-01-18T18:45:50.024Z,0.77
2024-01-18T18:48:16.846Z,2.41
2024-01-18T18:50:43.447Z,2.74
2024-01-18T18:53:10.032Z,2.08
2024-01-18T18:55:36.488Z,1.51
2024-01-18T18:58:02.953Z,1.90
2024-01-18T19:00:29.721Z,1.35
2024-01-18T19:02:56.155Z,0.65
2024-01-18T19:05:22.742Z,0.78
2024-01-18T19:07:49.309Z,0.69
2024-01-18T19:10:15.922Z,0.60
2024-01-18T19:12:42.777Z,0.74
2024-01-18T19:15:09.266Z,0.63
2024-01-18T19:17:36.504Z,0.53
2024-01-18T19:20:03.222Z,0.51
2024-01-18T19:22:29.750Z,0.54
2024-01-18T19:24:57.251Z,0.58
2024-01-18T19:27:23.884Z,0.92
2024-01-18T19:29:58.524Z,0.96
2024-01-18T19:32:25.775Z,1.46
2024-01-18T19:34:52.656Z,0.81
2024-01-18T19:37:19.052Z,0.56
2024-01-18T19:39:45.462Z,0.48
2024-01-18T19:42:11.871Z,0.61
2024-01-18T19:44:38.393Z,0.57
2024-01-18T19:47:07.699Z,0.90
2024-01-18T19:49:34.248Z,2.35
2024-01-18T19:52:00.758Z,1.88
2024-01-18T19:54:27.232Z,2.76
2024-01-18T19:56:53.817Z,2.14
2024-01-18T19:59:20.328Z,1.15
2024-01-18T20:01:46.825Z,2.41
2024-01-18T20:04:13.351Z,3.06
2024-01-18T20:06:39.887Z,3.02
2024-01-18T20:09:06.611Z,2.20
2024-01-18T20:11:33.160Z,1.56
2024-01-18T20:13:59.770Z,0.63
2024-01-18T20:16:26.224Z,0.39
2024-01-18T20:18:52.884Z,0.77
2024-01-18T20:21:19.329Z,0.94
2024-01-18T20:23:45.984Z,0.81
2024-01-18T20:26:14.100Z,0.95
2024-01-18T20:28:42.115Z,0.38
2024-01-18T20:31:08.770Z,0.43
2024-01-18T20:33:35.521Z,0.64
2024-01-18T20:36:02.658Z,1.02
2024-01-18T20:38:29.156Z,0.93
2024-01-18T20:40:55.701Z,0.53
2024-01-18T20:43:22.120Z,0.89
2024-01-18T20:45:48.517Z,0.78
2024-01-18T20:48:15.198Z,1.65
2024-01-18T20:50:41.697Z,1.88
2024-01-18T20:53:08.175Z,0.84
2024-01-18T20:55:34.561Z,0.78
2024-01-18T20:58:00.951Z,0.66
2024-01-18T21:00:32.333Z,0.58
2024-01-18T21:03:02.047Z,0.73
2024-01-18T21:05:28.507Z,0.68
2024-01-18T21:07:54.933Z,0.94
2024-01-18T21:10:21.320Z,0.96
2024-01-18T21:12:47.729Z,0.64
2024-01-18T21:15:14.116Z,0.59
2024-01-18T21:17:41.916Z,0.70
2024-01-18T21:20:09.754Z,0.79
2024-01-18T21:22:36.140Z,0.65
2024-01-18T21:25:02.539Z,0.59
2024-01-18T21:27:29.019Z,0.61
2024-01-18T21:29:55.421Z,0.55
2024-01-18T21:32:21.875Z,0.58
2024-01-18T21:34:48.355Z,0.69
2024-01-18T21:37:15.987Z,0.56
2024-01-18T21:39:54.742Z,0.44
2024-01-18T21:42:21.773Z,0.57
2024-01-18T21:44:57.509Z,0.59
2024-01-18T21:50:05.004Z,0.84
2024-01-18T21:52:31.958Z,0.62
2024-01-18T21:54:58.461Z,0.72
2024-01-18T21:57:25.391Z,0.86
2024-01-18T21:59:51.968Z,0.78
2024-01-18T22:02:18.700Z,0.67
2024-01-18T22:04:45.649Z,0.79
2024-01-18T22:07:15.962Z,0.87
2024-01-18T22:09:43.489Z,0.98
2024-01-18T22:12:10.200Z,0.97
2024-01-18T22:14:36.720Z,0.67
2024-01-18T22:17:03.268Z,0.66
2024-01-18T22:19:42.404Z,0.65
2024-01-18T22:22:13.739Z,0.69
2024-01-18T22:24:40.277Z,0.79
2024-01-18T22:27:06.760Z,0.85
2024-01-18T22:29:33.321Z,0.67
2024-01-18T22:31:59.744Z,0.66
2024-01-18T22:34:26.191Z,0.61
2024-01-18T22:36:52.677Z,0.52
2024-01-18T22:39:22.944Z,0.75
2024-01-18T22:41:49.421Z,0.54
2024-01-18T22:44:15.928Z,0.52
2024-01-18T22:46:42.477Z,0.56
2024-01-18T22:49:09.068Z,0.54
2024-01-18T22:51:35.564Z,0.70
2024-01-18T22:54:02.104Z,0.82
2024-01-18T22:56:28.599Z,0.86
2024-01-18T22:58:55.061Z,0.99
2024-01-18T23:01:31.459Z,0.78
2024-01-18T23:03:58.032Z,0.80
2024-01-18T23:06:24.650Z,0.68
2024-01-18T23:08:51.410Z,0.89
2024-01-18T23:11:18.067Z,0.66
2024-01-18T23:13:44.613Z,0.74
2024-01-18T23:16:11.098Z,0.63
2024-01-18T23:18:37.529Z,0.61
2024-01-18T23:21:04.026Z,0.64
2024-01-18T23:23:30.580Z,0.52
2024-01-18T23:25:57.108Z,0.50
2024-01-18T23:28:23.590Z,0.53
2024-01-18T23:30:50.056Z,0.60
2024-01-18T23:33:16.691Z,0.55
2024-01-18T23:35:43.231Z,0.51
2024-01-18T23:38:09.674Z,0.49
2024-01-18T23:40:36.139Z,0.42
2024-01-18T23:43:02.606Z,0.40
2024-01-18T23:45:29.085Z,0.40
2024-01-18T23:47:55.660Z,0.54
2024-01-18T23:50:22.189Z,0.47
2024-01-18T23:52:48.627Z,0.39
2024-01-18T23:55:15.002Z,0.54
2024-01-18T23:57:41.425Z,0.61
